createdAt,value
2023-03-05T00:01:23.704Z,8.50
2023-03-05T00:03:52.161Z,7.80
2023-03-05T00:06:24.863Z,7.80
2023-03-05T00:08:52.763Z,8.10
2023-03-05T00:11:20.432Z,8.20
2023-03-05T00:13:47.125Z,7.70
2023-03-05T00:16:15.734Z,8.50
2023-03-05T00:18:43.070Z,7.50
2023-03-05T00:21:22.848Z,9.10
2023-03-05T00:23:50.897Z,7.80
2023-03-05T00:26:24.751Z,7.20
2023-03-05T00:28:51.922Z,7.20
2023-03-05T00:31:22.428Z,7.20
2023-03-05T00:33:54.915Z,6.60
2023-03-05T00:36:21.646Z,7.20
2023-03-05T00:38:48.342Z,7.40
2023-03-05T00:41:14.976Z,7.20
2023-03-05T00:43:41.774Z,6.90
2023-03-05T00:46:08.450Z,6.10
2023-03-05T00:48:35.566Z,6.90
2023-03-05T00:51:02.528Z,5.90
2023-03-05T00:53:29.111Z,6.50
2023-03-05T00:55:55.828Z,6.40
2023-03-05T00:58:22.494Z,6.20
2023-03-05T01:00:51.736Z,5.80
2023-03-05T01:03:18.647Z,6.10
2023-03-05T01:05:45.359Z,5.70
2023-03-05T01:08:12.044Z,5.80
2023-03-05T01:10:38.539Z,6.30
2023-03-05T01:13:05.120Z,5.20
2023-03-05T01:15:31.708Z,5.70
2023-03-05T01:17:58.277Z,5.60
2023-03-05T01:20:24.978Z,6.10
2023-03-05T01:22:52.330Z,5.70
2023-03-05T01:25:19.129Z,5.70
2023-03-05T01:27:46.049Z,5.70
2023-03-05T01:30:14.413Z,5.50
2023-03-05T01:32:41.918Z,5.50
2023-03-05T01:35:11.813Z,5.60
2023-03-05T01:37:38.334Z,5.10
2023-03-05T01:40:05.952Z,5.10
2023-03-05T01:42:32.625Z,6.10
2023-03-05T01:45:06.346Z,5.50
2023-03-05T01:47:33.042Z,6.30
2023-03-05T01:49:59.874Z,5.50
2023-03-05T01:52:26.905Z,6.10
2023-03-05T01:54:59.617Z,5.90
2023-03-05T02:00:03.845Z,5.30
2023-03-05T02:02:31.416Z,5.70
2023-03-05T02:05:09.976Z,5.40
2023-03-05T02:07:39.419Z,5.60
2023-03-05T02:10:18.969Z,5.90
2023-03-05T02:12:47.663Z,6.60
2023-03-05T02:15:14.637Z,7.00
2023-03-05T02:17:41.183Z,6.50
2023-03-05T02:20:15.545Z,6.20
2023-03-05T02:22:42.267Z,7.00
2023-03-05T02:25:18.777Z,5.90
2023-03-05T02:28:18.222Z,6.60
2023-03-05T02:30:44.914Z,7.40
2023-03-05T02:33:14.614Z,7.30
2023-03-05T02:35:43.041Z,7.40
2023-03-05T02:38:11.176Z,6.70
2023-03-05T02:40:37.833Z,7.60
2023-03-05T02:43:04.673Z,8.80
2023-03-05T02:45:31.224Z,6.50
2023-03-05T02:47:57.821Z,6.20
2023-03-05T02:50:26.281Z,7.10
2023-03-05T02:52:52.848Z,6.90
2023-03-05T02:55:19.819Z,6.90
2023-03-05T02:57:46.346Z,7.40
2023-03-05T03:00:13.580Z,6.60
2023-03-05T03:02:40.223Z,7.30
2023-03-05T03:05:07.737Z,6.10
2023-03-05T03:07:35.934Z,6.80
2023-03-05T03:10:04.896Z,6.70
2023-03-05T03:12:31.500Z,6.30
2023-03-05T03:15:00.474Z,7.00
2023-03-05T03:17:27.096Z,6.20
2023-03-05T03:19:53.611Z,6.70
2023-03-05T03:22:20.174Z,6.60
2023-03-05T03:24:46.767Z,6.60
2023-03-05T03:27:13.300Z,6.50
2023-03-05T03:29:39.843Z,6.10
2023-03-05T03:32:08.016Z,6.70
2023-03-05T03:34:34.665Z,7.20
2023-03-05T03:37:01.266Z,6.60
2023-03-05T03:39:28.553Z,6.90
2023-03-05T03:41:55.989Z,7.30
2023-03-05T03:44:22.749Z,6.70
2023-03-05T03:46:50.353Z,7.60
2023-03-05T03:49:25.355Z,8.10
2023-03-05T03:51:57.527Z,7.70
2023-03-05T03:54:24.203Z,7.70
2023-03-05T03:56:50.920Z,6.60
2023-03-05T03:59:17.507Z,6.90
2023-03-05T04:01:44.235Z,6.30
2023-03-05T04:04:12.725Z,6.50
2023-03-05T04:06:39.847Z,6.30
2023-03-05T04:09:07.632Z,5.90
2023-03-05T04:11:35.989Z,6.70
2023-03-05T04:14:03.521Z,6.60
2023-03-05T04:16:30.234Z,6.10
2023-03-05T04:18:56.771Z,6.20
2023-03-05T04:21:23.619Z,5.80
2023-03-05T04:23:50.146Z,5.90
2023-03-05T04:26:16.700Z,5.80
2023-03-05T04:28:43.183Z,5.10
2023-03-05T04:31:09.748Z,5.50
2023-03-05T04:33:36.326Z,5.80
2023-03-05T04:36:03.159Z,4.40
2023-03-05T04:38:29.710Z,5.60
2023-03-05T04:40:56.228Z,5.00
2023-03-05T04:43:22.768Z,5.60
2023-03-05T04:45:49.302Z,5.30
2023-03-05T04:48:16.368Z,5.50
2023-03-05T04:50:42.979Z,5.90
2023-03-05T04:53:09.531Z,4.80
2023-03-05T04:55:36.046Z,5.70
2023-03-05T04:58:02.661Z,5.10
2023-03-05T05:00:29.304Z,5.30
2023-03-05T05:02:55.952Z,6.00
2023-03-05T05:05:25.680Z,5.60
2023-03-05T05:07:57.161Z,5.50
2023-03-05T05:10:25.366Z,5.10
2023-03-05T05:12:52.035Z,4.70
2023-03-05T05:15:18.893Z,5.60
2023-03-05T05:17:46.074Z,5.00
2023-03-05T05:20:14.556Z,5.50
2023-03-05T05:22:41.289Z,4.60
2023-03-05T05:25:09.799Z,4.60
2023-03-05T05:27:38.792Z,5.00
2023-03-05T05:30:07.061Z,5.40
2023-03-05T05:32:34.170Z,11.30
2023-03-05T05:35:00.798Z,9.40
2023-03-05T05:37:27.364Z,13.20
2023-03-05T05:39:54.053Z,7.80
2023-03-05T05:42:23.132Z,5.00
2023-03-05T05:44:49.891Z,3.80
2023-03-05T05:47:17.814Z,3.40
2023-03-05T05:49:44.497Z,3.60
2023-03-05T05:52:11.204Z,3.90
2023-03-05T05:54:38.676Z,3.40
2023-03-05T05:57:06.056Z,3.20
2023-03-05T05:59:33.124Z,3.80
2023-03-05T06:01:59.811Z,5.40
2023-03-05T06:04:26.420Z,4.90
2023-03-05T06:06:52.996Z,4.90
2023-03-05T06:09:19.752Z,4.30
2023-03-05T06:11:46.373Z,4.40
2023-03-05T06:14:14.054Z,4.50
2023-03-05T06:16:40.971Z,14.00
2023-03-05T06:19:11.799Z,8.00
2023-03-05T06:21:38.727Z,17.30
2023-03-05T06:24:05.915Z,9.40
2023-03-05T06:26:32.748Z,4.60
2023-03-05T06:28:59.476Z,3.50
2023-03-05T06:31:28.255Z,4.20
2023-03-05T06:33:57.827Z,3.90
2023-03-05T06:36:24.934Z,4.60
2023-03-05T06:38:53.648Z,9.40
2023-03-05T06:41:25.041Z,10.50
2023-03-05T06:43:51.994Z,12.60
2023-03-05T06:46:33.239Z,14.50
2023-03-05T06:49:01.599Z,12.30
2023-03-05T06:51:32.180Z,20.30
2023-03-05T06:54:09.289Z,12.70
2023-03-05T06:56:38.749Z,12.50
2023-03-05T06:59:06.181Z,13.90
2023-03-05T07:01:33.367Z,11.10
2023-03-05T07:04:02.364Z,8.10
2023-03-05T07:06:35.378Z,3.60
2023-03-05T07:09:03.494Z,6.20
2023-03-05T07:11:30.420Z,11.90
2023-03-05T07:13:57.025Z,14.70
2023-03-05T07:16:26.691Z,10.50
2023-03-05T07:18:55.560Z,9.00
2023-03-05T07:21:26.304Z,7.00
2023-03-05T07:23:54.500Z,7.10
2023-03-05T07:26:22.018Z,22.90
2023-03-05T07:28:48.854Z,5.10
2023-03-05T07:31:19.302Z,3.90
2023-03-05T07:33:49.744Z,2.90
2023-03-05T07:36:17.371Z,2.90
2023-03-05T07:38:44.228Z,3.50
2023-03-05T07:41:13.945Z,2.80
2023-03-05T07:43:40.563Z,3.40
2023-03-05T07:46:10.569Z,4.30
2023-03-05T07:48:37.697Z,2.50
2023-03-05T07:51:14.338Z,3.00
2023-03-05T07:53:45.710Z,2.80
2023-03-05T07:56:12.547Z,3.40
2023-03-05T07:58:39.302Z,3.70
2023-03-05T08:01:13.505Z,3.50
2023-03-05T08:03:41.297Z,3.30
2023-03-05T08:06:10.328Z,3.80
2023-03-05T08:08:37.751Z,4.20
2023-03-05T08:11:14.114Z,4.40
2023-03-05T08:13:41.752Z,4.60
2023-03-05T08:16:15.108Z,4.50
2023-03-05T08:18:42.444Z,3.80
2023-03-05T08:21:21.681Z,4.60
2023-03-05T08:23:48.966Z,5.00
2023-03-05T08:26:19.329Z,6.80
2023-03-05T08:28:45.979Z,6.70
2023-03-05T08:31:15.270Z,5.20
2023-03-05T08:33:42.265Z,4.80
2023-03-05T08:36:10.219Z,4.40
2023-03-05T08:38:36.961Z,5.70
2023-03-05T08:41:04.116Z,6.00
2023-03-05T08:43:30.773Z,5.30
2023-03-05T08:45:59.763Z,5.10
2023-03-05T08:48:26.916Z,4.20
2023-03-05T08:50:53.958Z,4.20
2023-03-05T08:53:20.637Z,5.10
2023-03-05T08:55:55.749Z,5.40
2023-03-05T08:58:22.912Z,3.90
2023-03-05T09:00:50.434Z,4.50
2023-03-05T09:03:17.732Z,4.20
2023-03-05T09:05:44.870Z,4.30
2023-03-05T09:08:11.641Z,3.90
2023-03-05T09:10:38.238Z,4.00
2023-03-05T09:13:05.048Z,3.10
2023-03-05T09:15:31.643Z,3.80
2023-03-05T09:17:58.994Z,3.00
2023-03-05T09:20:25.618Z,3.30
2023-03-05T09:22:52.234Z,3.40
2023-03-05T09:25:19.061Z,3.20
2023-03-05T09:27:45.753Z,3.30
2023-03-05T09:30:13.922Z,3.40
2023-03-05T09:32:40.767Z,3.30
2023-03-05T09:35:09.000Z,3.50
2023-03-05T09:37:36.042Z,3.50
2023-03-05T09:40:04.373Z,3.10
2023-03-05T09:43:01.708Z,3.10
2023-03-05T09:45:37.537Z,3.50
2023-03-05T09:48:13.101Z,2.80
2023-03-05T09:51:01.283Z,3.20
2023-03-05T09:53:27.980Z,3.40
2023-03-05T09:55:57.608Z,2.70
2023-03-05T09:58:33.234Z,3.00
2023-03-05T10:01:08.337Z,3.00
2023-03-05T10:03:49.362Z,3.10
2023-03-05T10:06:35.045Z,3.70
2023-03-05T10:09:11.015Z,3.30
2023-03-05T10:11:39.605Z,3.70
2023-03-05T10:14:13.971Z,3.00
2023-03-05T10:17:01.039Z,3.70
2023-03-05T10:20:15.370Z,2.60
2023-03-05T10:23:15.734Z,2.40
2023-03-05T10:25:57.513Z,2.60
2023-03-05T10:29:08.490Z,3.30
2023-03-05T10:31:49.672Z,3.20
2023-03-05T10:34:35.147Z,2.90
2023-03-05T10:37:41.901Z,2.50
2023-03-05T10:40:27.488Z,3.00
2023-03-05T10:43:20.455Z,3.20
2023-03-05T10:45:53.076Z,3.10
2023-03-05T10:48:58.432Z,3.40
2023-03-05T10:51:39.337Z,2.90
2023-03-05T10:54:35.367Z,2.70
2023-03-05T10:57:22.626Z,2.70
2023-03-05T11:00:17.495Z,2.80
2023-03-05T11:03:03.479Z,3.60
2023-03-05T11:06:01.355Z,3.30
2023-03-05T11:08:30.649Z,2.40
2023-03-05T11:11:07.785Z,3.20
2023-03-05T11:13:53.042Z,2.70
2023-03-05T11:16:27.071Z,2.50
2023-03-05T11:19:21.138Z,2.40
2023-03-05T11:22:16.372Z,2.10
2023-03-05T11:24:46.116Z,2.20
2023-03-05T11:27:35.576Z,2.20
2023-03-05T11:30:04.368Z,2.50
2023-03-05T11:32:31.383Z,3.00
2023-03-05T11:34:57.996Z,2.20
2023-03-05T11:37:29.656Z,3.00
2023-03-05T11:40:20.149Z,2.60
2023-03-05T11:42:56.968Z,2.50
2023-03-05T11:45:25.452Z,3.20
2023-03-05T11:47:56.023Z,3.10
2023-03-05T11:50:31.274Z,2.60
2023-03-05T11:53:20.236Z,3.10
2023-03-05T11:55:52.761Z,2.70
2023-03-05T11:58:28.252Z,2.50
2023-03-05T12:00:56.147Z,3.70
2023-03-05T12:03:34.162Z,2.80
2023-03-05T12:06:34.262Z,3.90
2023-03-05T12:09:25.795Z,2.40
2023-03-05T12:12:00.305Z,2.80
2023-03-05T12:14:50.011Z,2.80
2023-03-05T12:17:25.437Z,2.80
2023-03-05T12:20:26.283Z,2.70
2023-03-05T12:22:53.182Z,2.70
2023-03-05T12:25:50.065Z,2.80
2023-03-05T12:28:40.734Z,2.50
2023-03-05T12:31:37.110Z,3.20
2023-03-05T12:34:37.414Z,2.80
2023-03-05T12:37:12.066Z,3.30
2023-03-05T12:39:46.945Z,3.20
2023-03-05T12:42:28.783Z,3.20
2023-03-05T12:45:16.179Z,2.70
2023-03-05T12:47:47.387Z,2.30
2023-03-05T12:50:26.491Z,1.90
2023-03-05T12:52:58.612Z,2.10
2023-03-05T12:55:45.336Z,2.10
2023-03-05T12:58:43.452Z,2.80
2023-03-05T13:01:10.208Z,2.80
2023-03-05T13:03:45.234Z,1.70
2023-03-05T13:06:33.964Z,1.70
2023-03-05T13:09:07.009Z,2.00
2023-03-05T13:11:37.223Z,2.60
2023-03-05T13:14:04.192Z,1.80
2023-03-05T13:16:37.811Z,2.10
2023-03-05T13:19:15.260Z,1.80
2023-03-05T13:21:42.061Z,1.60
2023-03-05T13:24:18.499Z,1.90
2023-03-05T13:26:45.329Z,1.60
2023-03-05T13:29:15.467Z,2.10
2023-03-05T13:31:48.545Z,2.10
2023-03-05T13:34:44.649Z,2.00
2023-03-05T13:37:21.313Z,2.60
2023-03-05T13:39:55.367Z,2.00
2023-03-05T13:42:31.766Z,2.20
2023-03-05T13:45:25.693Z,2.30
2023-03-05T13:48:05.217Z,1.70
2023-03-05T13:50:40.144Z,2.40
2023-03-05T13:53:20.175Z,3.00
2023-03-05T13:55:48.807Z,3.90
2023-03-05T13:58:52.227Z,3.70
2023-03-05T14:01:43.024Z,3.30
2023-03-05T14:04:12.686Z,3.50
2023-03-05T14:07:03.121Z,3.30
2023-03-05T14:09:51.400Z,3.10
2023-03-05T14:12:32.477Z,3.70
2023-03-05T14:15:01.695Z,4.00
2023-03-05T14:17:38.586Z,3.10
2023-03-05T14:20:28.860Z,2.80
2023-03-05T14:23:01.279Z,2.80
2023-03-05T14:25:39.783Z,3.10
2023-03-05T14:28:15.725Z,2.80
2023-03-05T14:30:52.569Z,3.10
2023-03-05T14:33:32.557Z,2.80
2023-03-05T14:36:00.615Z,3.00
2023-03-05T14:38:30.367Z,3.10
2023-03-05T14:40:57.068Z,3.30
2023-03-05T14:43:23.746Z,3.50
2023-03-05T14:45:50.382Z,3.20
2023-03-05T14:48:20.709Z,4.40
2023-03-05T14:50:51.394Z,3.80
2023-03-05T14:53:24.941Z,4.10
2023-03-05T14:55:57.205Z,3.80
2023-03-05T14:58:31.740Z,3.60
2023-03-05T15:00:58.804Z,3.90
2023-03-05T15:03:27.282Z,3.10
2023-03-05T15:05:56.338Z,3.80
2023-03-05T15:08:29.819Z,4.60
2023-03-05T15:10:57.535Z,3.80
2023-03-05T15:13:24.561Z,5.80
2023-03-05T15:15:52.040Z,5.60
2023-03-05T15:18:21.702Z,5.90
2023-03-05T15:20:52.280Z,5.70
2023-03-05T15:23:19.573Z,5.10
2023-03-05T15:25:46.306Z,6.10
2023-03-05T15:28:13.192Z,6.60
2023-03-05T15:30:45.613Z,6.20
2023-03-05T15:33:16.277Z,5.40
2023-03-05T15:35:43.464Z,5.80
2023-03-05T15:38:10.059Z,5.10
2023-03-05T15:40:36.702Z,5.00
2023-03-05T15:43:03.469Z,5.40
2023-03-05T15:45:30.847Z,4.70
2023-03-05T15:47:57.827Z,5.00
2023-03-05T15:50:24.552Z,6.60
2023-03-05T15:52:51.240Z,7.10
2023-03-05T15:55:18.568Z,8.20
2023-03-05T15:57:49.111Z,9.40
2023-03-05T16:00:25.641Z,7.10
2023-03-05T16:02:52.876Z,7.50
2023-03-05T16:05:19.954Z,6.30
2023-03-05T16:07:48.612Z,5.40
2023-03-05T16:10:21.141Z,4.90
2023-03-05T16:12:50.242Z,5.00
2023-03-05T16:15:20.096Z,4.20
2023-03-05T16:17:53.828Z,5.30
2023-03-05T16:20:21.156Z,4.80
2023-03-05T16:22:48.880Z,5.10
2023-03-05T16:25:16.702Z,5.10
2023-03-05T16:27:43.570Z,4.70
2023-03-05T16:30:11.714Z,5.30
2023-03-05T16:32:38.734Z,6.40
2023-03-05T16:35:06.218Z,6.00
2023-03-05T16:37:33.201Z,6.50
2023-03-05T16:40:00.171Z,6.00
2023-03-05T16:42:27.416Z,5.80
2023-03-05T16:44:54.376Z,6.80
2023-03-05T16:47:21.209Z,5.90
2023-03-05T16:49:48.094Z,6.40
2023-03-05T16:52:19.788Z,6.50
2023-03-05T16:54:48.101Z,7.20
2023-03-05T16:57:15.376Z,6.90
2023-03-05T16:59:42.978Z,7.60
2023-03-05T17:02:09.914Z,7.70
2023-03-05T17:04:37.735Z,9.40
2023-03-05T17:07:04.957Z,12.20
2023-03-05T17:09:31.618Z,18.70
2023-03-05T17:11:58.497Z,16.50
2023-03-05T17:14:25.693Z,16.00
2023-03-05T17:16:52.561Z,14.10
2023-03-05T17:19:19.281Z,12.20
2023-03-05T17:21:49.947Z,11.10
2023-03-05T17:24:16.665Z,10.00
2023-03-05T17:26:43.315Z,7.70
2023-03-05T17:29:09.876Z,4.60
2023-03-05T17:31:36.555Z,5.50
2023-03-05T17:34:03.835Z,6.50
2023-03-05T17:36:31.535Z,8.90
2023-03-05T17:38:58.120Z,9.90
2023-03-05T17:41:25.013Z,10.00
2023-03-05T17:43:52.116Z,11.20
2023-03-05T17:46:18.718Z,11.50
2023-03-05T17:48:45.493Z,13.50
2023-03-05T17:51:13.846Z,9.60
2023-03-05T17:53:40.584Z,8.10
2023-03-05T17:56:12.887Z,9.50
2023-03-05T17:58:40.300Z,12.90
2023-03-05T18:01:08.589Z,12.00
2023-03-05T18:03:36.552Z,12.00
2023-03-05T18:06:04.304Z,12.60
2023-03-05T18:08:30.995Z,11.40
2023-03-05T18:10:57.615Z,11.80
2023-03-05T18:13:24.224Z,9.60
2023-03-05T18:15:50.911Z,9.10
2023-03-05T18:18:18.291Z,10.20
2023-03-05T18:20:45.578Z,10.40
2023-03-05T18:23:12.576Z,10.10
2023-03-05T18:25:39.688Z,9.80
2023-03-05T18:28:13.697Z,9.80
2023-03-05T18:30:42.729Z,7.90
2023-03-05T18:33:24.261Z,8.10
2023-03-05T18:35:52.154Z,6.20
2023-03-05T18:38:25.609Z,5.70
2023-03-05T18:40:54.664Z,7.30
2023-03-05T18:43:23.898Z,14.30
2023-03-05T18:45:53.657Z,50.10
2023-03-05T18:48:21.438Z,20.30
2023-03-05T18:50:53.421Z,22.00
2023-03-05T18:53:21.846Z,33.60
2023-03-05T18:55:50.984Z,33.60
2023-03-05T18:58:18.261Z,28.70
2023-03-05T19:00:46.482Z,21.60
2023-03-05T19:03:14.757Z,31.10
2023-03-05T19:05:41.868Z,29.80
2023-03-05T19:08:09.070Z,24.40
2023-03-05T19:10:36.067Z,30.50
2023-03-05T19:13:27.358Z,23.60
2023-03-05T19:15:54.298Z,20.00
2023-03-05T19:18:22.692Z,13.90
2023-03-05T19:20:55.724Z,25.40
2023-03-05T19:23:23.517Z,15.60
2023-03-05T19:25:50.428Z,12.00
2023-03-05T19:28:17.212Z,12.80
2023-03-05T19:30:43.931Z,20.20
2023-03-05T19:33:10.571Z,16.10
2023-03-05T19:35:37.394Z,19.00
2023-03-05T19:38:04.290Z,19.00
2023-03-05T19:40:30.912Z,16.90
2023-03-05T19:42:57.953Z,17.20
2023-03-05T19:45:24.498Z,17.00
2023-03-05T19:47:51.213Z,17.50
2023-03-05T19:50:18.106Z,19.50
2023-03-05T19:52:44.747Z,18.30
2023-03-05T19:55:11.576Z,16.90
2023-03-05T19:57:38.380Z,16.20
2023-03-05T20:00:06.013Z,12.40
2023-03-05T20:02:32.793Z,10.40
2023-03-05T20:04:59.520Z,11.20
2023-03-05T20:07:26.402Z,10.90
2023-03-05T20:09:54.862Z,10.80
2023-03-05T20:12:23.356Z,10.10
2023-03-05T20:14:50.387Z,10.30
2023-03-05T20:17:17.234Z,10.10
2023-03-05T20:19:43.846Z,9.50
2023-03-05T20:22:10.734Z,10.40
2023-03-05T20:24:37.747Z,10.10
2023-03-05T20:27:04.655Z,9.60
2023-03-05T20:29:31.600Z,9.80
2023-03-05T20:31:58.711Z,8.80
2023-03-05T20:34:26.513Z,9.00
2023-03-05T20:36:53.378Z,8.90
2023-03-05T20:39:20.045Z,8.60
2023-03-05T20:41:47.373Z,9.10
2023-03-05T20:44:15.910Z,10.10
2023-03-05T20:46:51.840Z,9.30
2023-03-05T20:49:19.200Z,10.20
2023-03-05T20:51:49.384Z,10.40
2023-03-05T20:54:16.696Z,9.10
2023-03-05T20:56:43.600Z,8.90
2023-03-05T20:59:11.105Z,9.40
2023-03-05T21:01:39.741Z,9.70
2023-03-05T21:04:07.643Z,9.40
2023-03-05T21:06:35.338Z,9.60
2023-03-05T21:09:02.689Z,10.30
2023-03-05T21:11:29.497Z,9.70
2023-03-05T21:13:56.842Z,9.30
2023-03-05T21:16:26.083Z,9.60
2023-03-05T21:18:55.299Z,9.80
2023-03-05T21:21:22.350Z,10.40
2023-03-05T21:23:49.556Z,11.30
2023-03-05T21:26:16.755Z,9.30
2023-03-05T21:28:43.755Z,9.10
2023-03-05T21:31:17.391Z,8.90
2023-03-05T21:33:44.358Z,8.50
2023-03-05T21:36:11.228Z,8.90
2023-03-05T21:38:38.383Z,9.60
2023-03-05T21:41:05.560Z,9.90
2023-03-05T21:43:32.989Z,10.40
2023-03-05T21:46:01.408Z,10.50
2023-03-05T21:48:28.621Z,9.70
2023-03-05T21:50:56.556Z,11.50
2023-03-05T21:53:24.058Z,11.70
2023-03-05T21:56:00.485Z,11.20
2023-03-05T21:58:27.353Z,10.10
2023-03-05T22:00:54.204Z,10.00
2023-03-05T22:03:20.875Z,10.90
2023-03-05T22:05:47.691Z,9.80
2023-03-05T22:08:14.310Z,10.70
2023-03-05T22:10:41.408Z,10.90
2023-03-05T22:13:12.315Z,10.10
2023-03-05T22:15:50.333Z,11.70
2023-03-05T22:18:23.910Z,10.80
2023-03-05T22:20:50.701Z,10.50
2023-03-05T22:23:19.105Z,12.30
2023-03-05T22:25:45.711Z,11.30
2023-03-05T22:28:12.741Z,11.10
2023-03-05T22:30:44.867Z,11.20
2023-03-05T22:33:11.955Z,13.00
2023-03-05T22:35:41.981Z,12.80
2023-03-05T22:38:09.976Z,12.90
2023-03-05T22:40:41.066Z,11.50
2023-03-05T22:43:07.656Z,13.10
2023-03-05T22:45:34.202Z,12.90
2023-03-05T22:48:00.890Z,14.10
2023-03-05T22:50:27.516Z,13.30
2023-03-05T22:52:54.302Z,12.90
2023-03-05T22:55:20.943Z,13.70
2023-03-05T22:57:47.595Z,14.50
2023-03-05T23:00:22.753Z,17.40
2023-03-05T23:02:50.907Z,20.40
2023-03-05T23:05:18.368Z,21.40
2023-03-05T23:07:45.883Z,19.30
2023-03-05T23:10:18.294Z,19.00
2023-03-05T23:12:49.452Z,19.10
2023-03-05T23:15:24.296Z,18.00
2023-03-05T23:17:51.008Z,18.70
2023-03-05T23:20:20.711Z,20.00
2023-03-05T23:22:49.248Z,19.50
2023-03-05T23:25:16.134Z,19.90
2023-03-05T23:27:43.039Z,18.80
2023-03-05T23:30:16.296Z,20.90
2023-03-05T23:33:03.540Z,20.10
2023-03-05T23:35:35.005Z,22.10
2023-03-05T23:38:05.358Z,22.00
2023-03-05T23:40:39.899Z,21.90
2023-03-05T23:43:06.626Z,23.50
2023-03-05T23:45:33.702Z,20.70
2023-03-05T23:48:00.881Z,22.00
2023-03-05T23:50:33.827Z,22.00
2023-03-05T23:53:02.314Z,20.10
2023-03-05T23:55:41.814Z,20.40
2023-03-05T23:58:09.311Z,21.60
